Terminal Aerodrome Forecast
Issued by NWS

Home | Current Version | Previous Version | Text Only | Print | Product List | Glossary On
Versions: 1 2 3 4 5 6 7 8 9 10 11 12 13 14 15 16 17 18 19 20 21 22 23 24 25 26 27 28
456
FTUS42 KGSP 072103 AAA
TAFGMU
TAF AMD
KGMU 072103Z 0721/0818 18006KT P6SM BKN025
     FM080600 VRB02KT 3SM BR BKN030
     FM081200 30003KT P6SM OVC035
     FM081500 35007KT P6SM OVC070=

USA.gov is the U.S. government's official web portal to all federal, state and local government web resources and services.